Flight Track Log - Related Links

Times and Time Zones

All times are in EDT time to prevent confusion due to time zone crossing. See the UAL1036 flight status page for this flight to view local times or setup timezone preferences in your user account.

Time Position Orientation Groundspeed Altitude Reporting Facility
EDT Latitude Longitude Course Direction KTS MPH feet Rate Location/Type
Fri 01:52:00 AM 1.9945 -79.3601 334° Northwest  Level FlightAware Approximate
Fri 01:53:00 AM 2.1045 -79.4138 334° Northwest  Level FlightAware Approximate
Fri 01:54:00 AM 2.2144 -79.4675 334° Northwest  Level FlightAware Approximate
Fri 01:55:00 AM 2.3240 -79.5210 334° Northwest  Level FlightAware Approximate
Fri 01:56:00 AM 2.4338 -79.5743 334° Northwest  Level FlightAware Approximate
Fri 01:57:00 AM 2.5436 -79.6273 334° Northwest  Level FlightAware Approximate
Fri 01:58:00 AM 2.6535 -79.6803 334° Northwest  Level FlightAware Approximate
Fri 01:59:00 AM 2.7634 -79.7333 334° Northwest  Level FlightAware Approximate
Fri 02:00:00 AM 2.8732 -79.7862 334° Northwest  Level FlightAware Approximate
Fri 02:01:00 AM 2.9831 -79.8393 334° Northwest  Level FlightAware Approximate
Fri 02:02:00 AM 3.0929 -79.8923 334° Northwest  Level FlightAware Approximate
Fri 02:03:00 AM 3.2028 -79.9453 334° Northwest  Level FlightAware Approximate
Fri 02:04:00 AM 3.3126 -79.9984 334° Northwest  Level FlightAware Approximate
Fri 02:05:00 AM 3.4225 -80.0514 334° Northwest  Level FlightAware Approximate
Fri 02:06:00 AM 3.5359 -80.1062 334° Northwest  Level FlightAware Approximate
Fri 02:07:00 AM 3.6493 -80.1610 334° Northwest  Level FlightAware Approximate
Fri 02:08:00 AM 3.7628 -80.2159 334° Northwest  Level FlightAware Approximate
Fri 02:09:00 AM 3.8762 -80.2706 334° Northwest  Level FlightAware Approximate
Fri 02:10:00 AM 3.9898 -80.3252 334° Northwest  Level FlightAware Approximate
Fri 02:11:00 AM 4.1033 -80.3798 334° Northwest  Level FlightAware Approximate
Fri 02:12:00 AM 4.2169 -80.4344 334° Northwest  Level FlightAware Approximate
Fri 02:13:00 AM 4.3304 -80.4891 334° Northwest  Level FlightAware Approximate
Fri 02:14:00 AM 4.4439 -80.5437 334° Northwest  Level FlightAware Approximate
Fri 02:15:00 AM 4.5575 -80.5984 334° Northwest  Level FlightAware Approximate
Fri 02:16:00 AM 4.6710 -80.6530 334° Northwest  Level FlightAware Approximate
Fri 02:17:00 AM 4.7845 -80.7077 334° Northwest  Level FlightAware Approximate
Fri 02:18:00 AM 4.8980 -80.7625 334° Northwest  Level FlightAware Approximate
Fri 02:19:00 AM 5.0115 -80.8172 334° Northwest  Level FlightAware Approximate
Fri 02:20:00 AM 5.1250 -80.8720 334° Northwest  Level FlightAware Approximate
Fri 02:21:00 AM 5.2385 -80.9267 334° Northwest  Level FlightAware Approximate
Fri 02:22:00 AM 5.3520 -80.9815 334° Northwest  Level FlightAware Approximate
Fri 02:23:00 AM 5.4655 -81.0363 334° Northwest  Level FlightAware Approximate
Fri 02:24:00 AM 5.5790 -81.0912 334° Northwest  Level FlightAware Approximate
Fri 02:25:00 AM 5.6925 -81.1460 334° Northwest  Level FlightAware Approximate
Fri 02:26:00 AM 5.8059 -81.2009 334° Northwest  Level FlightAware Approximate
Fri 02:27:00 AM 5.9194 -81.2558 334° Northwest  Level FlightAware Approximate
Fri 02:28:00 AM 6.0329 -81.3107 334° Northwest  Level FlightAware Approximate
Fri 02:29:00 AM 6.1463 -81.3657 334° Northwest  Level FlightAware Approximate
Fri 02:30:00 AM 6.2598 -81.4207 334° Northwest  Level FlightAware Approximate
Fri 02:31:00 AM 6.3732 -81.4756 334° Northwest  Level FlightAware Approximate
Fri 02:32:00 AM 6.4867 -81.5307 334° Northwest  Level FlightAware Approximate
Fri 02:33:00 AM 6.6001 -81.5857 334° Northwest  Level FlightAware Approximate
Fri 02:34:00 AM 6.7135 -81.6408 334° Northwest  Level FlightAware Approximate
Fri 02:35:00 AM 6.8270 -81.6959 334° Northwest  Level FlightAware Approximate
Fri 02:36:00 AM 6.9404 -81.7510 334° Northwest  Level FlightAware Approximate
Fri 02:37:00 AM 7.0538 -81.8061 334° Northwest  Level FlightAware Approximate
Fri 02:38:00 AM 7.1672 -81.8613 334° Northwest  Level FlightAware Approximate
Fri 02:39:00 AM 7.2806 -81.9165 334° Northwest  Level FlightAware Approximate
Fri 02:40:00 AM 7.3940 -81.9717 334° Northwest  Level FlightAware Approximate
Fri 02:41:00 AM 7.5073 -82.0270 334° Northwest  Level FlightAware Approximate
Fri 02:42:00 AM 7.6207 -82.0823 334° Northwest  Level FlightAware Approximate
Fri 02:43:00 AM 7.7341 -82.1376 334° Northwest  Level FlightAware Approximate
Fri 02:44:00 AM 7.8475 -82.1929 334° Northwest  Level FlightAware Approximate
Fri 02:45:00 AM 7.9608 -82.2483 334° Northwest  Level FlightAware Approximate
Fri 02:46:00 AM 8.0742 -82.3037 334° Northwest  Level FlightAware Approximate
Fri 02:47:00 AM 8.1875 -82.3592 334° Northwest  Level FlightAware Approximate
Fri 02:48:00 AM 8.3008 -82.4146 334° Northwest  Level FlightAware Approximate
Fri 02:49:00 AM 8.4142 -82.4701 334° Northwest  Level FlightAware Approximate
Fri 02:50:00 AM 8.5275 -82.5257 334° Northwest  Level FlightAware Approximate
Fri 02:51:00 AM 8.6408 -82.5812 334° Northwest  Level FlightAware Approximate
Fri 02:52:00 AM 8.7541 -82.6368 334° Northwest  Level FlightAware Approximate
Fri 02:53:00 AM 8.8674 -82.6925 334° Northwest  Level FlightAware Approximate
Fri 02:54:00 AM 8.9805 -82.7486 334° Northwest  Level FlightAware Approximate
Fri 02:55:00 AM 9.0934 -82.8050 334° Northwest  Level FlightAware Approximate
Fri 02:56:00 AM 9.2063 -82.8615 334° Northwest  Level FlightAware Approximate
Fri 02:57:00 AM 9.3193 -82.9180 334° Northwest  Level FlightAware Approximate
Fri 02:58:00 AM 9.4323 -82.9742 334° Northwest  Level FlightAware Approximate
Fri 02:59:00 AM 9.5453 -83.0305 334° Northwest  Level FlightAware Approximate
Fri 03:00:00 AM 9.6584 -83.0868 334° Northwest  Level FlightAware Approximate
Fri 03:01:00 AM 9.7714 -83.1431 334° Northwest  Level FlightAware Approximate
Fri 03:02:00 AM 9.8844 -83.1995 334° Northwest  Level FlightAware Approximate
Fri 03:03:00 AM 9.9974 -83.2559 334° Northwest  Level FlightAware Approximate
Fri 03:04:00 AM 10.1104 -83.3124 334° Northwest  Level FlightAware Approximate
Fri 03:05:00 AM 10.2234 -83.3689 334° Northwest  Level FlightAware Approximate
Fri 03:06:00 AM 10.3363 -83.4255 334° Northwest  Level FlightAware Approximate
Fri 03:07:00 AM 10.4493 -83.4821 334° Northwest  Level FlightAware Approximate
Fri 03:08:00 AM 10.5623 -83.5387 334° Northwest  Level FlightAware Approximate
Fri 03:09:00 AM 10.6752 -83.5954 334° Northwest  Level FlightAware Approximate
Fri 03:10:00 AM 10.7881 -83.6521 334° Northwest  Level FlightAware Approximate
Fri 03:11:00 AM 10.9010 -83.7088 334° Northwest  Level FlightAware Approximate
Fri 03:12:00 AM 11.0142 -83.7651 334° Northwest  Level FlightAware Approximate
Fri 03:13:00 AM 11.1273 -83.8214 334° Northwest  Level FlightAware Approximate
Fri 03:14:00 AM 11.2405 -83.8777 334° Northwest  Level FlightAware Approximate
Fri 03:15:00 AM 11.3536 -83.9341 334° Northwest  Level FlightAware Approximate
Fri 03:16:00 AM 11.4668 -83.9905 334° Northwest  Level FlightAware Approximate
Fri 03:17:00 AM 11.5799 -84.0470 334° Northwest  Level FlightAware Approximate
Fri 03:18:00 AM 11.6930 -84.1035 334° Northwest  Level FlightAware Approximate
Fri 03:19:00 AM 11.8061 -84.1601 334° Northwest  Level FlightAware Approximate
Fri 03:20:00 AM 11.9192 -84.2167 334° Northwest  Level FlightAware Approximate
Fri 03:21:00 AM 12.0323 -84.2734 334° Northwest  Level FlightAware Approximate
Fri 03:22:00 AM 12.1453 -84.3300 334° Northwest  Level FlightAware Approximate
Fri 03:23:00 AM 12.2584 -84.3868 334° Northwest  Level FlightAware Approximate
Fri 03:24:00 AM 12.3714 -84.4436 334° Northwest  Level FlightAware Approximate
Fri 03:25:00 AM 12.4844 -84.5005 334° Northwest  Level FlightAware Approximate
Fri 03:26:00 AM 12.5974 -84.5575 334° Northwest  Level FlightAware Approximate
Fri 03:27:00 AM 12.7103 -84.6146 334° Northwest  Level FlightAware Approximate
Fri 03:28:00 AM 12.8232 -84.6718 334° Northwest  Level FlightAware Approximate
Fri 03:29:00 AM 12.9361 -84.7290 334° Northwest  Level FlightAware Approximate
Fri 03:30:00 AM 13.0490 -84.7862 334° Northwest  Level FlightAware Approximate
Fri 03:31:00 AM 13.1619 -84.8436 334° Northwest  Level FlightAware Approximate
Fri 03:32:00 AM 13.2748 -84.9010 334° Northwest  Level FlightAware Approximate
Fri 03:33:00 AM 13.3876 -84.9584 334° Northwest  Level FlightAware Approximate
Fri 03:34:00 AM 13.5005 -85.0159 334° Northwest  Level FlightAware Approximate
Fri 03:35:00 AM 13.6133 -85.0734 334° Northwest  Level FlightAware Approximate
Fri 03:36:00 AM 13.7261 -85.1310 334° Northwest  Level FlightAware Approximate
Fri 03:37:00 AM 13.8389 -85.1887 334° Northwest  Level FlightAware Approximate
Fri 03:38:00 AM 13.9517 -85.2464 334° Northwest  Level FlightAware Approximate
Fri 03:39:00 AM 14.0644 -85.3041 334° Northwest  Level FlightAware Approximate
Fri 03:40:00 AM 14.1772 -85.3620 334° Northwest  Level FlightAware Approximate
Fri 03:41:00 AM 14.2899 -85.4198 334° Northwest  Level FlightAware Approximate
Fri 03:42:00 AM 14.4027 -85.4778 334° Northwest  Level FlightAware Approximate
Fri 03:43:00 AM 14.5154 -85.5358 334° Northwest  Level FlightAware Approximate
Fri 03:44:00 AM 14.6281 -85.5938 334° Northwest  Level FlightAware Approximate
Fri 03:45:00 AM 14.7408 -85.6519 333° Northwest  Level FlightAware Approximate
Fri 03:46:00 AM 14.8534 -85.7101 333° Northwest  Level FlightAware Approximate
Fri 03:47:00 AM 14.9661 -85.7683 333° Northwest  Level FlightAware Approximate
Fri 03:48:00 AM 15.0787 -85.8266 333° Northwest  Level FlightAware Approximate
Fri 03:49:00 AM 15.1913 -85.8850 333° Northwest  Level FlightAware Approximate
Fri 03:50:00 AM 15.3040 -85.9434 333° Northwest  Level FlightAware Approximate
Fri 03:51:00 AM 15.4160 -86.0031 333° Northwest  Level FlightAware Approximate
Fri 03:52:00 AM 15.5279 -86.0630 333° Northwest  Level FlightAware Approximate
Fri 03:53:00 AM 15.6398 -86.1230 333° Northwest  Level FlightAware Approximate
Fri 03:54:00 AM 15.7516 -86.1831 333° Northwest  Level FlightAware Approximate
Fri 03:55:00 AM 15.8635 -86.2432 333° Northwest  Level FlightAware Approximate
Fri 03:56:00 AM 15.9753 -86.3034 333° Northwest  Level FlightAware Approximate
Fri 03:57:00 AM 16.0876 -86.3627 333° Northwest  Level FlightAware Approximate
Fri 03:58:00 AM 16.2000 -86.4218 333° Northwest  Level FlightAware Approximate
Fri 03:59:00 AM 16.3124 -86.4810 333° Northwest  Level FlightAware Approximate
Fri 04:00:00 AM 16.4248 -86.5402 333° Northwest  Level FlightAware Approximate
Fri 04:01:00 AM 16.5371 -86.5995 333° Northwest  Level FlightAware Approximate
Fri 04:02:00 AM 16.6495 -86.6589 333° Northwest  Level FlightAware Approximate
Fri 04:03:00 AM 16.7618 -86.7184 333° Northwest  Level FlightAware Approximate
Fri 04:04:00 AM 16.8741 -86.7779 333° Northwest  Level FlightAware Approximate
Fri 04:05:00 AM 16.9864 -86.8375 333° Northwest  Level FlightAware Approximate
Fri 04:06:00 AM 17.0986 -86.8971 333° Northwest  Level FlightAware Approximate
Fri 04:07:00 AM 17.2110 -86.9566 333° Northwest  Level FlightAware Approximate
Fri 04:08:00 AM 17.3236 -87.0157 333° Northwest  Level FlightAware Approximate
Fri 04:09:00 AM 17.4361 -87.0750 333° Northwest  Level FlightAware Approximate
Fri 04:10:00 AM 17.5486 -87.1342 333° Northwest  Level FlightAware Approximate
Fri 04:11:00 AM 17.6611 -87.1936 333° Northwest  Level FlightAware Approximate
Fri 04:12:00 AM 17.7736 -87.2530 333° Northwest  Level FlightAware Approximate
Fri 04:13:00 AM 17.8861 -87.3125 333° Northwest  Level FlightAware Approximate
Fri 04:14:00 AM 17.9985 -87.3721 333° Northwest  Level FlightAware Approximate
Fri 04:15:00 AM 18.1110 -87.4318 333° Northwest  Level FlightAware Approximate
Fri 04:16:00 AM 18.2234 -87.4915 333° Northwest  Level FlightAware Approximate
Fri 04:17:00 AM 18.3358 -87.5513 333° Northwest  Level FlightAware Approximate
Fri 04:18:00 AM 18.4480 -87.6115 333° Northwest  Level FlightAware Approximate
Fri 04:19:00 AM 18.5602 -87.6718 333° Northwest  Level FlightAware Approximate
Fri 04:20:00 AM 18.6724 -87.7322 333° Northwest  Level FlightAware Approximate
Fri 04:21:00 AM 18.7845 -87.7926 333° Northwest  Level FlightAware Approximate
Fri 04:22:00 AM 18.8967 -87.8531 333° Northwest  Level FlightAware Approximate
Fri 04:23:00 AM 19.0088 -87.9138 333° Northwest  Level FlightAware Approximate
Fri 04:24:00 AM 19.1209 -87.9744 333° Northwest  Level FlightAware Approximate
Fri 04:25:00 AM 19.2330 -88.0352 333° Northwest  Level FlightAware Approximate
Fri 04:26:00 AM 19.3451 -88.0961 333° Northwest  Level FlightAware Approximate
Fri 04:27:00 AM 19.4571 -88.1570 333° Northwest  Level FlightAware Approximate
Fri 04:28:00 AM 19.5692 -88.2180 333° Northwest  Level FlightAware Approximate
Fri 04:29:00 AM 19.6815 -88.2784 333° Northwest  Level FlightAware Approximate
Fri 04:30:00 AM 19.7939 -88.3388 333° Northwest  Level FlightAware Approximate
Fri 04:31:00 AM 19.9062 -88.3994 333° Northwest  Level FlightAware Approximate
Fri 04:32:00 AM 20.0184 -88.4601 333° Northwest  Level FlightAware Approximate
Fri 04:33:00 AM 20.1303 -88.5217 333° Northwest  Level FlightAware Approximate
Fri 04:34:00 AM 20.2421 -88.5834 333° Northwest  Level FlightAware Approximate
Fri 04:35:00 AM 20.3539 -88.6452 333° Northwest  Level FlightAware Approximate
Fri 04:36:00 AM 20.4657 -88.7070 333° Northwest  Level FlightAware Approximate
Fri 04:37:00 AM 20.5774 -88.7690 333° Northwest  Level FlightAware Approximate
Fri 04:38:00 AM 20.6890 -88.8315 332° Northwest  Level FlightAware Approximate
Fri 04:39:00 AM 20.8002 -88.8947 332° Northwest  Level FlightAware Approximate
Fri 04:40:00 AM 20.9114 -88.9579 332° Northwest  Level FlightAware Approximate
Fri 04:41:00 AM 21.3983 -89.2361 332° Northwest  Level FlightAware Approximate
Fri 04:42:00 AM 21.8855 -89.5144 332° Northwest  Level FlightAware Approximate
Fri 04:43:00 AM 22.3898 -89.7227 358° North  Level FlightAware Approximate
Fri 04:44:00 AM 22.9410 -89.7481 357° North  Level FlightAware Approximate
Fri 04:45:00 AM 23.4920 -89.7779 357° North  Level FlightAware Approximate
Fri 04:46:00 AM 24.0429 -89.8081 357° North  Level FlightAware Approximate
Fri 04:47:00 AM 24.5723 -89.9054 325° Northwest  Level FlightAware Approximate
Fri 04:48:00 AM 25.0244 -90.2538 325° Northwest  Level FlightAware Approximate
Fri 04:49:00 AM 25.4756 -90.6047 325° Northwest  Level FlightAware Approximate
Fri 04:50:00 AM 25.9260 -90.9583 325° Northwest  Level FlightAware Approximate
Fri 04:51:00 AM 26.3802 -91.3072 325° Northwest  Level FlightAware Approximate
Fri 04:52:00 AM 26.8302 -91.6641 325° Northwest  Level FlightAware Approximate
Fri 04:53:00 AM 27.2781 -92.0257 324° Northwest  Level FlightAware Approximate
Fri 04:54:00 AM 27.7217 -92.3956 324° Northwest  Level FlightAware Approximate
Fri 04:55:00 AM 28.1721 -92.7561 326° Northwest  Level FlightAware Approximate
Fri 04:56:00 AM 28.6158 -93.1285 327° Northwest  Level FlightAware Approximate
Fri 04:57:00 AM 29.0565 -93.5065 319° Northwest  Level FlightAware Approximate
Fri 04:58:00 AM 29.5052 -93.8733 323° Northwest  Level FlightAware Approximate
Fri 04:59:00 AM 29.5894 -94.4848 291° West  Level FlightAware Approximate
Fri 05:00:00 AM 29.8295 -95.0547 298° West  Level FlightAware Approximate
Fri 05:01:00 AM 29.9833 -95.3333 311° West  Level FlightAware Approximate
Fri 05:02:00 AM 29.9844 -95.3414 311° West  Level Estimated
Fri 05:03:00 AM 29.9833 -95.3333 311° West  Level FlightAware Approximate
Fri 05:04:00 AM 29.9844 -95.3414 311° West  Level Estimated
Fri 05:05:00 AM 29.9833 -95.3333 311° West  Level FlightAware Approximate
Fri 05:06:00 AM 29.9844 -95.3414 311° West  Level Estimated
Fri 05:07:00 AM 29.9833 -95.3333 311° West  Level FlightAware Approximate
Fri 05:08:00 AM 29.9844 -95.3414 311° West  Level Estimated
Fri 05:09:00 AM 29.9833 -95.3333 311° West  Level FlightAware Approximate
Fri 05:10:00 AM 29.9844 -95.3414 311° West  Level Estimated
Fri 05:11:00 AM 29.9833 -95.3333 311° West  Level FlightAware Approximate
Fri 05:12:00 AM 29.9844 -95.3414 311° West  Level Estimated
Fri 05:13:00 AM 29.9833 -95.3333 311° West  Level FlightAware Approximate
Fri 05:14:00 AM 29.9844 -95.3414 311° West  Level Estimated
Fri 05:15:00 AM 29.9833 -95.3333 311° West  Level FlightAware Approximate
Fri 05:16:00 AM 29.9844 -95.3414 311° West  Level Estimated
Fri 05:17:00 AM 29.9833 -95.3333 311° West  Level FlightAware Approximate
Fri 05:18:00 AM 29.9844 -95.3414 311° West  Level Estimated
Fri 05:19:00 AM 29.9833 -95.3333 311° West  Level FlightAware Approximate
Fri 05:20:00 AM 29.9844 -95.3414 311° West  Level Estimated
Fri 05:21:00 AM 29.9833 -95.3333 311° West  Level FlightAware Approximate
Fri 05:22:00 AM 29.9844 -95.3414 311° West  Level Estimated
Fri 05:23:00 AM 29.9833 -95.3333 311° West  Level FlightAware Approximate
Fri 05:24:00 AM 29.9844 -95.3414 311° West  Level Estimated
Fri 05:25:00 AM 29.9833 -95.3333 311° West  Level FlightAware Approximate
Fri 05:25:49 AM 26.6114 -91.5056 311° West 490 564 37,000  Level Houston Center
Fri 05:26:00 AM 29.9844 -95.3414 311° West  Level Estimated
Fri 05:26:49 AM 26.7169 -91.5853 326° Northwest 473 544 37,000  Level Houston Center
Fri 05:27:00 AM 29.9833 -95.3333 311° West  Level FlightAware Approximate
Fri 05:27:50 AM 26.8236 -91.6664 326° Northwest 472 543 37,000  Level Houston Center
Fri 05:28:00 AM 29.9844 -95.3414 311° West  Level Estimated
Fri 05:28:50 AM 26.9272 -91.7497 324° Northwest 481 554 37,000  Level Houston Center
Fri 05:29:00 AM 29.9833 -95.3333 311° West  Level FlightAware Approximate
Fri 05:29:50 AM 27.0358 -91.8383 324° Northwest 483 556 37,000  Level Houston Center
Fri 05:30:00 AM 29.9844 -95.3414 311° West  Level Estimated
Fri 05:30:50 AM 27.1453 -91.9264 324° Northwest 483 556 37,000  Level Houston Center
Fri 05:31:00 AM 29.9833 -95.3333 311° West  Level FlightAware Approximate
Fri 05:31:50 AM 27.2461 -92.0269 318° Northwest 485 558 37,000  Level Houston Center
Fri 05:32:51 AM 27.3450 -92.1306 317° Northwest 485 558 37,000 -50 Level Houston Center
Fri 05:33:51 AM 27.4439 -92.2369 316° Northwest 490 564 36,900 -50 Descending Houston Center
Fri 05:34:51 AM 27.5428 -92.3386 318° Northwest 484 557 36,900 50 Level Houston Center
Fri 05:35:51 AM 27.6417 -92.4422 317° Northwest 486 559 37,000 50 Climbing Houston Center
Fri 05:36:52 AM 27.7411 -92.5472 317° Northwest 490 564 37,000  Level Houston Center
Fri 05:37:52 AM 27.8397 -92.6511 317° Northwest 486 559 37,000 -50 Level Houston Center
Fri 05:38:52 AM 27.9394 -92.7558 317° Northwest 488 562 36,900  Descending Houston Center
Fri 05:39:53 AM 28.0375 -92.8617 316° Northwest 487 560 37,000 50 Climbing Houston Center
Fri 05:40:53 AM 28.1367 -92.9703 316° Northwest 492 566 37,000 -50 Level Houston Center
Fri 05:41:53 AM 28.2567 -93.0947 318° Northwest 489 563 36,900 -50 Descending Houston Center
Fri 05:42:53 AM 28.3564 -93.2025 316° Northwest 493 567 36,900 50 Level Houston Center
Fri 05:43:54 AM 28.4461 -93.3000 316° Northwest 495 570 37,000 50 Climbing Houston Center
Fri 05:44:54 AM 28.5456 -93.4050 317° Northwest 489 563 37,000  Level Houston Center
Fri 05:45:54 AM 28.6561 -93.5242 317° Northwest 494 568 37,000 -300 Level Houston Center
Fri 05:46:54 AM 28.7456 -93.6186 317° Northwest 492 566 36,400 -1,785 Descending Houston Center
Fri 05:47:55 AM 28.8433 -93.7272 316° Northwest 491 565 33,400 -3,025 Descending Houston Center
Fri 05:48:55 AM 28.9528 -93.8461 316° Northwest 489 563 30,300 -2,600 Descending Houston Center
Fri 05:49:55 AM 29.0378 -93.9381 317° Northwest 478 550 28,200 -2,200 Descending Houston Center
Fri 05:50:55 AM 29.1283 -94.0372 316° Northwest 455 524 25,900 -2,231 Descending Houston Center
Fri 05:51:56 AM 29.2150 -94.1333 316° Northwest 438 504 23,700 -2,231 Descending Houston Center
Fri 05:52:56 AM 29.2981 -94.2239 316° Northwest 418 481 21,400 -2,450 Descending Houston Center
Fri 05:53:56 AM 29.3797 -94.3139 316° Northwest 409 471 18,800 -2,331 Descending Houston Center
Fri 05:54:57 AM 29.4586 -94.4019 316° Northwest 401 461 16,700 -2,033 Descending Houston Center
Fri 05:55:57 AM 29.5328 -94.4842 316° Northwest 375 432 14,700 -1,800 Descending Houston Center
Fri 05:56:57 AM 29.6050 -94.5633 316° Northwest 364 419 13,100 -1,200 Descending Houston Center
Fri 05:57:57 AM 29.6664 -94.6333 315° West 316 364 12,300 -1,388 Descending Houston Center
Fri 05:58:58 AM 29.7392 -94.7125 317° Northwest 305 351 10,300 -1,736 Descending Houston Center
Fri 05:59:58 AM 29.7994 -94.7803 316° Northwest 305 351 8,800 -1,350 Descending Houston Center
Fri 06:00:58 AM 29.8575 -94.8447 316° Northwest 294 338 7,600 -1,240 Descending Houston Center
Fri 06:01:59 AM 29.9128 -94.9064 316° Northwest 282 325 6,300 -1,140 Descending Houston Center
Fri 06:02:59 AM 29.9675 -94.9689 315° West 279 321 5,300 -750 Descending Houston Center
Fri 06:03:59 AM 29.9933 -95.0361 294° West 255 293 4,800 -850 Descending Houston Center
Fri 06:04:59 AM 29.9933 -95.1064 270° West 224 258 3,600 -1,200 Descending Houston Center

Login

Don't have an account? Register now (free) for customized features, flight alerts, and more!